createdAt,value
2018-12-06T00:00:27.088Z,13.83
2018-12-06T00:02:57.540Z,17.32
2018-12-06T00:05:28.168Z,15.72
2018-12-06T00:08:09.611Z,18.25
2018-12-06T00:10:40.409Z,17.07
2018-12-06T00:13:11.095Z,14.98
2018-12-06T00:15:41.974Z,22.13
2018-12-06T00:18:12.552Z,15.03
2018-12-06T00:20:43.159Z,14.90
2018-12-06T00:23:13.658Z,19.05
2018-12-06T00:25:44.823Z,16.02
2018-12-06T00:28:15.497Z,16.55
2018-12-06T00:30:47.120Z,19.27
2018-12-06T00:33:17.672Z,17.32
2018-12-06T00:35:48.254Z,15.35
2018-12-06T00:38:18.952Z,15.18
2018-12-06T00:40:49.707Z,17.87
2018-12-06T00:43:20.001Z,16.97
2018-12-06T00:45:50.778Z,16.30
2018-12-06T00:48:21.386Z,15.15
2018-12-06T00:50:52.055Z,15.83
2018-12-06T00:53:22.626Z,14.80
2018-12-06T00:55:53.168Z,17.77
2018-12-06T00:58:23.687Z,13.75
2018-12-06T01:00:54.455Z,14.45
2018-12-06T01:03:25.150Z,12.88
2018-12-06T01:05:55.818Z,15.88
2018-12-06T01:08:26.863Z,13.40
2018-12-06T01:10:57.609Z,14.43
2018-12-06T01:13:28.310Z,16.37
2018-12-06T01:15:58.867Z,13.72
2018-12-06T01:18:29.569Z,16.07
2018-12-06T01:21:00.237Z,18.12
2018-12-06T01:23:30.771Z,15.40
2018-12-06T01:26:01.499Z,12.80
2018-12-06T01:28:32.151Z,15.32
2018-12-06T01:31:02.881Z,17.23
2018-12-06T01:33:33.523Z,13.80
2018-12-06T01:36:04.238Z,14.35
2018-12-06T01:38:34.861Z,16.20
2018-12-06T01:41:05.594Z,16.62
2018-12-06T01:43:36.067Z,17.20
2018-12-06T01:46:06.772Z,14.68
2018-12-06T01:48:38.036Z,17.05
2018-12-06T01:51:08.650Z,14.73
2018-12-06T01:53:39.419Z,14.05
2018-12-06T01:56:10.107Z,15.53
2018-12-06T01:58:40.800Z,13.00
2018-12-06T02:01:11.542Z,11.75
2018-12-06T02:03:42.358Z,15.28
2018-12-06T02:06:13.023Z,14.13
2018-12-06T02:08:43.723Z,13.48
2018-12-06T02:11:14.205Z,15.30
2018-12-06T02:13:44.965Z,15.63
2018-12-06T02:16:15.782Z,15.98
2018-12-06T02:18:46.309Z,15.30
2018-12-06T02:21:17.107Z,13.22
2018-12-06T02:23:47.799Z,14.93
2018-12-06T02:26:18.360Z,14.93
2018-12-06T02:28:48.969Z,14.63
2018-12-06T02:31:19.920Z,16.23
2018-12-06T02:33:51.317Z,15.75
2018-12-06T02:36:22.083Z,15.93
2018-12-06T02:38:52.660Z,16.85
2018-12-06T02:41:23.312Z,13.68
2018-12-06T02:43:54.088Z,14.68
2018-12-06T02:46:24.771Z,14.85
2018-12-06T02:48:55.410Z,14.55
2018-12-06T02:51:26.627Z,16.57
2018-12-06T02:53:57.010Z,18.10
2018-12-06T02:56:27.467Z,17.73
2018-12-06T02:58:58.087Z,18.98
2018-12-06T03:01:28.747Z,18.77
2018-12-06T03:03:59.259Z,20.12
2018-12-06T03:06:31.254Z,14.43
2018-12-06T03:09:03.871Z,15.58
2018-12-06T03:11:36.082Z,19.55
2018-12-06T03:14:06.579Z,16.15
2018-12-06T03:16:37.400Z,19.40
2018-12-06T03:19:07.937Z,18.32
2018-12-06T03:21:39.618Z,16.05
2018-12-06T03:24:10.227Z,19.37
2018-12-06T03:26:40.821Z,17.57
2018-12-06T03:29:11.394Z,15.23
2018-12-06T03:31:41.991Z,16.62
2018-12-06T03:34:12.395Z,18.12
2018-12-06T03:36:42.783Z,17.12
2018-12-06T03:39:13.395Z,16.90
2018-12-06T03:41:44.065Z,16.67
2018-12-06T03:44:15.587Z,16.15
2018-12-06T03:46:46.331Z,15.68
2018-12-06T03:49:16.969Z,19.55
2018-12-06T03:51:47.623Z,14.30
2018-12-06T03:54:18.400Z,15.48
2018-12-06T03:56:49.084Z,16.67
2018-12-06T03:59:19.947Z,14.28
2018-12-06T04:01:50.757Z,16.20
2018-12-06T04:04:21.322Z,17.02
2018-12-06T04:06:51.921Z,19.07
2018-12-06T04:09:22.213Z,14.70
2018-12-06T04:11:52.778Z,17.65
2018-12-06T04:14:23.062Z,18.35
2018-12-06T04:16:53.577Z,16.32
2018-12-06T04:19:24.522Z,18.42
2018-12-06T04:21:55.229Z,15.03
2018-12-06T04:24:25.875Z,18.82
2018-12-06T04:26:56.224Z,17.23
2018-12-06T04:29:26.711Z,16.75
2018-12-06T04:31:57.413Z,16.48
2018-12-06T04:34:27.897Z,16.95
2018-12-06T04:36:58.636Z,15.68
2018-12-06T04:39:29.216Z,17.55
2018-12-06T04:41:59.797Z,18.02
2018-12-06T04:44:30.569Z,16.97
2018-12-06T04:47:01.285Z,14.15
2018-12-06T04:49:31.998Z,17.30
2018-12-06T04:52:02.629Z,14.15
2018-12-06T04:54:33.091Z,16.57
2018-12-06T04:57:04.721Z,17.07
2018-12-06T04:59:35.396Z,13.25
2018-12-06T05:02:06.130Z,15.32
2018-12-06T05:04:36.656Z,14.55
2018-12-06T05:07:07.227Z,14.93
2018-12-06T05:09:37.830Z,14.70
2018-12-06T05:12:08.388Z,14.83
2018-12-06T05:14:39.095Z,16.97
2018-12-06T05:17:09.553Z,16.27
2018-12-06T05:19:40.252Z,15.23
2018-12-06T05:22:10.576Z,14.90
2018-12-06T05:24:40.912Z,17.82
2018-12-06T05:27:11.212Z,14.07
2018-12-06T05:29:42.831Z,16.05
2018-12-06T05:32:13.536Z,14.70
2018-12-06T05:34:44.541Z,17.98
2018-12-06T05:37:14.859Z,19.90
2018-12-06T05:39:45.418Z,13.22
2018-12-06T05:42:16.217Z,18.95
2018-12-06T05:44:46.863Z,14.30
2018-12-06T05:47:17.412Z,16.87
2018-12-06T05:49:47.908Z,18.27
2018-12-06T05:52:18.745Z,15.23
2018-12-06T05:54:49.279Z,18.20
2018-12-06T05:57:19.893Z,17.07
2018-12-06T05:59:50.330Z,17.25
2018-12-06T06:02:20.713Z,16.40
2018-12-06T06:04:51.047Z,16.93
2018-12-06T06:07:21.380Z,21.80
2018-12-06T06:09:51.675Z,18.17
2018-12-06T06:12:22.327Z,17.37
2018-12-06T06:14:53.017Z,19.57
2018-12-06T06:17:23.895Z,16.48
2018-12-06T06:19:54.516Z,18.82
2018-12-06T06:22:25.071Z,16.17
2018-12-06T06:24:55.816Z,19.35
2018-12-06T06:27:26.451Z,19.30
2018-12-06T06:29:57.249Z,16.05
2018-12-06T06:32:27.942Z,15.88
2018-12-06T06:34:58.396Z,17.95
2018-12-06T06:37:29.037Z,18.77
2018-12-06T06:39:59.441Z,17.57
2018-12-06T06:42:29.847Z,16.07
2018-12-06T06:45:00.367Z,16.17
2018-12-06T06:47:30.712Z,18.35
2018-12-06T06:50:01.430Z,19.65
2018-12-06T06:52:32.944Z,22.73
2018-12-06T06:55:05.649Z,16.65
2018-12-06T06:57:38.330Z,16.12
2018-12-06T07:00:10.222Z,18.05
2018-12-06T07:02:40.784Z,17.27
2018-12-06T07:05:11.530Z,20.02
2018-12-06T07:07:43.067Z,17.23
2018-12-06T07:10:13.854Z,16.90
2018-12-06T07:12:44.550Z,17.25
2018-12-06T07:15:15.291Z,21.00
2018-12-06T07:17:45.920Z,19.45
2018-12-06T07:20:16.550Z,17.62
2018-12-06T07:22:48.211Z,21.30
2018-12-06T07:25:19.116Z,18.27
2018-12-06T07:27:49.875Z,21.05
2018-12-06T07:30:20.673Z,16.23
2018-12-06T07:32:51.266Z,19.30
2018-12-06T07:35:22.021Z,15.55
2018-12-06T07:37:52.643Z,16.30
2018-12-06T07:40:23.330Z,18.87
2018-12-06T07:42:54.269Z,16.02
2018-12-06T07:45:25.422Z,14.40
2018-12-06T07:47:56.229Z,13.72
2018-12-06T07:50:27.077Z,13.53
2018-12-06T07:52:57.716Z,12.55
2018-12-06T07:55:28.410Z,16.37
2018-12-06T07:57:59.177Z,16.25
2018-12-06T08:00:29.900Z,18.42
2018-12-06T08:03:00.574Z,17.23
2018-12-06T08:05:31.279Z,16.00
2018-12-06T08:08:01.945Z,14.23
2018-12-06T08:10:32.319Z,14.87
2018-12-06T08:13:02.948Z,14.78
2018-12-06T08:15:33.622Z,15.60
2018-12-06T08:18:04.815Z,12.95
2018-12-06T08:20:35.569Z,14.93
2018-12-06T08:23:06.373Z,17.15
2018-12-06T08:25:37.118Z,20.37
2018-12-06T08:28:07.799Z,21.20
2018-12-06T08:30:38.596Z,19.62
2018-12-06T08:33:09.265Z,18.25
2018-12-06T08:35:39.897Z,17.27
2018-12-06T08:38:12.252Z,16.15
2018-12-06T08:40:43.311Z,21.02
2018-12-06T08:43:14.054Z,18.05
2018-12-06T08:45:44.872Z,19.02
2018-12-06T08:48:15.406Z,18.87
2018-12-06T08:50:46.184Z,17.45
2018-12-06T08:53:16.775Z,14.70
2018-12-06T08:55:47.548Z,15.70
2018-12-06T08:58:19.960Z,14.75
2018-12-06T09:00:50.771Z,14.60
2018-12-06T09:03:21.327Z,15.13
2018-12-06T09:05:51.952Z,12.47
2018-12-06T09:08:22.738Z,14.43
2018-12-06T09:10:53.682Z,19.27
2018-12-06T09:13:23.972Z,13.70
2018-12-06T09:15:54.412Z,15.58
2018-12-06T09:18:24.801Z,15.15
2018-12-06T09:20:55.161Z,13.68
2018-12-06T09:23:26.007Z,13.98
2018-12-06T09:25:56.711Z,15.08
2018-12-06T09:28:27.395Z,13.98
2018-12-06T09:31:01.174Z,15.78
2018-12-06T09:33:30.644Z,20.05
2018-12-06T09:36:01.382Z,12.70
2018-12-06T09:38:32.111Z,16.30
2018-12-06T09:41:03.086Z,15.25
2018-12-06T09:43:33.844Z,16.77
2018-12-06T09:46:04.561Z,15.30
2018-12-06T09:48:35.075Z,19.32
2018-12-06T09:51:06.102Z,16.20
2018-12-06T09:53:36.735Z,14.00
2018-12-06T09:56:07.979Z,12.20
2018-12-06T09:58:38.584Z,13.60
2018-12-06T10:01:09.345Z,15.10
2018-12-06T10:03:39.973Z,12.50
2018-12-06T10:06:10.626Z,11.93
2018-12-06T10:08:41.504Z,15.08
2018-12-06T10:11:12.216Z,11.43
2018-12-06T10:13:43.048Z,15.18
2018-12-06T10:16:13.993Z,15.32
2018-12-06T10:18:44.654Z,14.18
2018-12-06T10:21:15.482Z,12.73
2018-12-06T10:23:46.344Z,13.88
2018-12-06T10:26:16.831Z,14.40
2018-12-06T10:28:47.475Z,11.70
2018-12-06T10:31:18.267Z,11.40
2018-12-06T10:33:49.169Z,12.20
2018-12-06T10:36:19.901Z,14.40
2018-12-06T10:38:50.557Z,13.55
2018-12-06T10:41:20.957Z,14.47
2018-12-06T10:43:51.987Z,12.30
2018-12-06T10:46:23.444Z,15.40
2018-12-06T10:48:54.258Z,11.88
2018-12-06T10:51:35.571Z,13.58
2018-12-06T10:54:06.721Z,10.48
2018-12-06T10:56:37.639Z,11.95
2018-12-06T10:59:08.159Z,12.65
2018-12-06T11:01:43.527Z,10.98
2018-12-06T11:04:14.307Z,11.60
2018-12-06T11:06:45.556Z,9.75
2018-12-06T11:09:16.311Z,10.18
2018-12-06T11:11:47.010Z,13.13
2018-12-06T11:14:17.830Z,11.93
2018-12-06T11:16:48.744Z,13.45
2018-12-06T11:19:19.443Z,12.60
2018-12-06T11:21:50.335Z,14.03
2018-12-06T11:24:21.126Z,11.90
2018-12-06T11:26:51.680Z,15.88
2018-12-06T11:29:22.297Z,12.82
2018-12-06T11:31:53.366Z,12.60
2018-12-06T11:34:24.339Z,21.27
2018-12-06T11:36:55.033Z,19.12
2018-12-06T11:39:25.853Z,16.05
2018-12-06T11:41:56.768Z,13.60
2018-12-06T11:44:27.548Z,10.53
2018-12-06T11:46:58.295Z,11.68
2018-12-06T11:49:29.110Z,12.47
2018-12-06T11:52:00.014Z,14.35
2018-12-06T11:54:30.982Z,11.50
2018-12-06T11:57:01.690Z,14.58
2018-12-06T11:59:32.373Z,16.67
2018-12-06T12:02:09.763Z,11.40
2018-12-06T12:04:35.619Z,13.43
2018-12-06T12:07:06.396Z,14.05
2018-12-06T12:09:37.321Z,12.30
2018-12-06T12:12:07.997Z,14.35
2018-12-06T12:14:40.550Z,10.40
2018-12-06T12:17:10.972Z,12.30
2018-12-06T12:19:41.754Z,10.88
2018-12-06T12:22:12.275Z,18.35
2018-12-06T12:24:42.966Z,13.18
2018-12-06T12:27:13.482Z,18.23
2018-12-06T12:29:44.328Z,12.63
2018-12-06T12:32:14.788Z,10.75
2018-12-06T12:34:45.533Z,15.23
2018-12-06T12:37:16.191Z,13.98
2018-12-06T12:39:46.911Z,12.07
2018-12-06T12:42:17.641Z,15.48
2018-12-06T12:44:48.388Z,15.75
2018-12-06T12:47:19.147Z,18.87
2018-12-06T12:49:50.178Z,19.85
2018-12-06T12:52:20.970Z,16.20
2018-12-06T12:54:51.878Z,12.78
2018-12-06T12:57:22.455Z,15.03
2018-12-06T12:59:53.054Z,15.50
2018-12-06T13:02:23.515Z,13.70
2018-12-06T13:04:54.170Z,16.32
2018-12-06T13:07:24.905Z,14.45
2018-12-06T13:09:55.596Z,16.82
2018-12-06T13:12:26.218Z,14.53
2018-12-06T13:14:56.798Z,16.00
2018-12-06T13:17:27.445Z,16.27
2018-12-06T13:19:58.160Z,13.93
2018-12-06T13:22:28.926Z,14.70
2018-12-06T13:24:59.756Z,15.38
2018-12-06T13:27:30.740Z,23.50
2018-12-06T13:30:01.501Z,15.35
2018-12-06T13:32:32.323Z,14.78
2018-12-06T13:35:03.199Z,13.68
2018-12-06T13:37:33.873Z,18.50
2018-12-06T13:40:04.624Z,14.63
2018-12-06T13:42:35.736Z,20.23
2018-12-06T13:45:06.948Z,20.30
2018-12-06T13:47:39.441Z,14.13
2018-12-06T13:50:10.285Z,15.72
2018-12-06T13:52:40.835Z,15.75
2018-12-06T13:55:11.619Z,15.88
2018-12-06T13:57:42.190Z,18.27
2018-12-06T14:00:12.954Z,17.15
2018-12-06T14:02:43.877Z,17.90
2018-12-06T14:05:14.751Z,18.85
2018-12-06T14:07:45.273Z,20.10
2018-12-06T14:10:15.940Z,18.27
2018-12-06T14:12:46.655Z,17.82
2018-12-06T14:15:17.368Z,16.55
2018-12-06T14:17:48.048Z,17.23
2018-12-06T14:20:18.877Z,14.83
2018-12-06T14:22:49.622Z,13.75
2018-12-06T14:25:20.312Z,12.55
2018-12-06T14:27:50.911Z,14.00
2018-12-06T14:30:21.377Z,21.95
2018-12-06T14:32:51.895Z,34.73
2018-12-06T14:35:22.450Z,20.30
2018-12-06T14:37:53.071Z,19.40
2018-12-06T14:40:23.850Z,19.20
2018-12-06T14:42:54.872Z,18.87
2018-12-06T14:45:25.627Z,19.12
2018-12-06T14:47:56.276Z,17.57
2018-12-06T14:50:27.096Z,24.18
2018-12-06T14:52:57.818Z,21.90
2018-12-06T14:55:28.698Z,23.42
2018-12-06T14:57:59.615Z,23.80
2018-12-06T15:00:30.371Z,30.40
2018-12-06T15:03:01.179Z,26.77
2018-12-06T15:05:31.659Z,29.67
2018-12-06T15:08:02.186Z,33.63
2018-12-06T15:10:32.927Z,29.80
2018-12-06T15:13:03.607Z,38.70
2018-12-06T15:15:34.472Z,32.55
2018-12-06T15:18:05.255Z,42.38
2018-12-06T15:20:36.759Z,45.80
2018-12-06T15:23:07.594Z,44.65
2018-12-06T15:25:41.853Z,40.12
2018-12-06T15:28:10.848Z,49.70
2018-12-06T15:30:41.649Z,48.15
2018-12-06T15:33:12.300Z,47.27
2018-12-06T15:35:42.948Z,40.63
2018-12-06T15:38:13.524Z,39.55
2018-12-06T15:40:44.528Z,36.20
2018-12-06T15:43:14.902Z,40.30
2018-12-06T15:45:45.564Z,40.38
2018-12-06T15:48:16.014Z,44.00
2018-12-06T15:50:46.684Z,42.75
2018-12-06T15:53:17.361Z,40.12
2018-12-06T15:55:48.033Z,95.03
2018-12-06T15:58:18.728Z,67.35
2018-12-06T16:00:49.531Z,63.48
2018-12-06T16:03:20.083Z,94.92
2018-12-06T16:05:50.764Z,96.87
2018-12-06T16:08:21.559Z,52.67
2018-12-06T16:10:52.771Z,50.03
2018-12-06T16:13:23.332Z,45.58
2018-12-06T16:15:54.017Z,55.95
2018-12-06T16:18:24.484Z,56.05
2018-12-06T16:20:55.284Z,60.38
2018-12-06T16:23:25.851Z,59.48
2018-12-06T16:25:56.421Z,58.30
2018-12-06T16:28:27.036Z,57.60
2018-12-06T16:30:57.693Z,64.77
2018-12-06T16:33:28.152Z,68.80
2018-12-06T16:35:58.816Z,77.15
2018-12-06T16:38:29.498Z,72.08
2018-12-06T16:41:00.398Z,75.40
2018-12-06T16:43:31.081Z,73.67
2018-12-06T16:46:01.748Z,60.92
2018-12-06T16:48:32.748Z,67.42
2018-12-06T16:51:03.318Z,61.68
2018-12-06T16:53:34.158Z,64.35
2018-12-06T16:56:04.858Z,68.67
2018-12-06T16:58:36.399Z,48.73
2018-12-06T17:01:07.032Z,44.53
2018-12-06T17:03:37.795Z,58.42
2018-12-06T17:06:08.581Z,52.27
2018-12-06T17:08:39.485Z,50.98
2018-12-06T17:11:10.413Z,44.10
2018-12-06T17:13:41.071Z,41.02
2018-12-06T17:16:11.559Z,41.75
2018-12-06T17:18:42.092Z,45.55
2018-12-06T17:21:12.960Z,39.78
2018-12-06T17:23:43.464Z,40.12
2018-12-06T17:26:14.173Z,42.70
2018-12-06T17:28:44.561Z,37.80
2018-12-06T17:31:15.305Z,41.23
2018-12-06T17:33:46.199Z,39.65
2018-12-06T17:36:16.848Z,42.38
2018-12-06T17:38:47.566Z,33.80
2018-12-06T17:41:18.024Z,38.70
2018-12-06T17:43:48.742Z,63.70
2018-12-06T17:46:19.307Z,41.75
2018-12-06T17:48:49.833Z,42.10
2018-12-06T17:51:20.491Z,37.42
2018-12-06T17:53:52.357Z,43.68
2018-12-06T17:56:23.787Z,47.03
2018-12-06T17:58:54.381Z,39.85
2018-12-06T18:01:24.768Z,40.12
2018-12-06T18:03:55.097Z,39.80
2018-12-06T18:06:25.575Z,43.75
2018-12-06T18:08:56.342Z,41.45
2018-12-06T18:11:26.911Z,45.60
2018-12-06T18:13:57.438Z,54.08
2018-12-06T18:16:27.942Z,52.45
2018-12-06T18:18:58.308Z,44.88
2018-12-06T18:21:29.542Z,46.08
2018-12-06T18:24:00.034Z,46.00
2018-12-06T18:26:30.421Z,53.58
2018-12-06T18:29:01.017Z,61.33
2018-12-06T18:31:31.344Z,54.48
2018-12-06T18:34:01.902Z,57.75
2018-12-06T18:36:32.498Z,57.33
2018-12-06T18:39:03.920Z,54.88
2018-12-06T18:41:36.387Z,52.78
2018-12-06T18:44:06.675Z,50.63
2018-12-06T18:46:37.284Z,45.45
2018-12-06T18:49:07.905Z,48.73
2018-12-06T18:51:38.562Z,54.50
2018-12-06T18:54:09.251Z,63.70
2018-12-06T18:56:39.765Z,58.38
2018-12-06T18:59:10.507Z,70.03
2018-12-06T19:01:41.170Z,68.05
2018-12-06T19:04:12.049Z,75.75
2018-12-06T19:06:45.280Z,70.85
2018-12-06T19:09:15.918Z,71.12
2018-12-06T19:11:46.475Z,76.10
2018-12-06T19:14:21.815Z,74.03
2018-12-06T19:16:49.740Z,68.07
2018-12-06T19:19:20.133Z,75.92
2018-12-06T19:21:50.610Z,82.53
2018-12-06T19:24:21.295Z,75.42
2018-12-06T19:26:51.859Z,80.92
2018-12-06T19:29:22.539Z,78.90
2018-12-06T19:31:52.998Z,78.25
2018-12-06T19:34:23.548Z,73.72
2018-12-06T19:36:53.932Z,76.00
2018-12-06T19:39:24.339Z,70.15
2018-12-06T19:41:54.928Z,75.25
2018-12-06T19:44:25.662Z,71.87
2018-12-06T19:46:56.851Z,76.75
2018-12-06T19:49:27.595Z,81.32
2018-12-06T19:51:57.871Z,76.95
2018-12-06T19:54:28.793Z,74.27
2018-12-06T19:56:59.867Z,71.62
2018-12-06T19:59:30.315Z,76.05
2018-12-06T20:02:00.727Z,77.65
2018-12-06T20:04:31.141Z,73.52
2018-12-06T20:07:01.869Z,81.20
2018-12-06T20:09:32.537Z,74.92
2018-12-06T20:12:03.125Z,77.75
2018-12-06T20:14:33.905Z,77.20
2018-12-06T20:17:04.802Z,76.57
2018-12-06T20:19:35.600Z,75.37
2018-12-06T20:22:06.072Z,78.10
2018-12-06T20:24:36.388Z,70.47
2018-12-06T20:27:06.916Z,73.40
2018-12-06T20:29:37.271Z,74.37
2018-12-06T20:32:14.527Z,65.90
2018-12-06T20:34:42.756Z,62.53
2018-12-06T20:37:13.238Z,69.65
2018-12-06T20:39:43.871Z,68.12
2018-12-06T20:42:14.573Z,67.60
2018-12-06T20:44:45.286Z,69.20
2018-12-06T20:47:19.274Z,66.82
2018-12-06T20:49:50.014Z,65.22
2018-12-06T20:52:20.287Z,64.75
2018-12-06T20:54:50.613Z,70.67
2018-12-06T20:57:20.839Z,65.57
2018-12-06T20:59:51.100Z,61.35
2018-12-06T21:02:21.389Z,63.15
2018-12-06T21:04:52.025Z,65.47
2018-12-06T21:07:22.497Z,65.87
2018-12-06T21:09:53.188Z,68.25
2018-12-06T21:12:23.798Z,65.80
2018-12-06T21:14:54.634Z,64.27
2018-12-06T21:17:25.076Z,80.35
2018-12-06T21:19:55.704Z,68.95
2018-12-06T21:22:26.381Z,65.90
2018-12-06T21:24:56.991Z,65.30
2018-12-06T21:27:27.566Z,66.42
2018-12-06T21:29:58.333Z,65.22
2018-12-06T21:32:29.133Z,58.75
2018-12-06T21:34:59.805Z,66.22
2018-12-06T21:37:30.604Z,67.20
2018-12-06T21:40:01.902Z,59.15
2018-12-06T21:42:33.083Z,63.55
2018-12-06T21:45:04.055Z,59.45
2018-12-06T21:47:34.749Z,58.25
2018-12-06T21:50:07.253Z,59.13
2018-12-06T21:52:38.066Z,56.10
2018-12-06T21:55:09.062Z,52.10
2018-12-06T21:57:39.731Z,49.95
2018-12-06T22:00:10.984Z,55.10
2018-12-06T22:02:41.904Z,61.92
2018-12-06T22:05:12.399Z,51.68
2018-12-06T22:07:43.230Z,49.25
2018-12-06T22:10:14.266Z,50.33
2018-12-06T22:12:44.975Z,51.13
2018-12-06T22:15:15.521Z,50.05
2018-12-06T22:17:46.340Z,53.40
2018-12-06T22:20:16.823Z,49.15
2018-12-06T22:22:47.200Z,51.45
2018-12-06T22:25:17.629Z,54.50
2018-12-06T22:27:48.056Z,51.33
2018-12-06T22:30:18.575Z,64.05
2018-12-06T22:32:48.927Z,56.98
2018-12-06T22:35:19.350Z,62.23
2018-12-06T22:37:49.868Z,57.27
2018-12-06T22:40:20.302Z,68.12
2018-12-06T22:42:50.723Z,73.10
2018-12-06T22:45:58.134Z,69.70
2018-12-06T22:48:28.763Z,58.68
2018-12-06T22:50:59.431Z,62.17
2018-12-06T22:53:30.013Z,69.00
2018-12-06T22:56:00.556Z,63.55
2018-12-06T22:58:31.059Z,64.92
2018-12-06T23:01:04.608Z,55.00
2018-12-06T23:03:36.659Z,56.83
2018-12-06T23:06:07.715Z,55.35
2018-12-06T23:08:38.320Z,60.38
2018-12-06T23:11:08.923Z,54.23
2018-12-06T23:13:40.466Z,61.95
2018-12-06T23:16:10.923Z,60.55
2018-12-06T23:18:41.558Z,57.85
2018-12-06T23:21:12.330Z,63.28
2018-12-06T23:23:42.863Z,52.75
2018-12-06T23:26:13.246Z,58.68
2018-12-06T23:28:43.880Z,59.25
2018-12-06T23:31:14.363Z,57.58
2018-12-06T23:33:44.828Z,48.13
2018-12-06T23:36:16.528Z,55.98
2018-12-06T23:38:47.037Z,57.17
2018-12-06T23:41:17.740Z,52.83
2018-12-06T23:43:48.274Z,57.08
2018-12-06T23:46:18.994Z,57.93
2018-12-06T23:48:49.548Z,63.75
2018-12-06T23:51:30.886Z,61.02
2018-12-06T23:54:01.331Z,62.27
2018-12-06T23:56:31.619Z,55.65
2018-12-06T23:59:02.188Z,64.47
